Weather Data

Pearl Creek Farm: 8878 N Farm Road 75, Walnut Grove MO 65770

<== Previous Day (Tuesday 26 Apr 2016) | Next Day (Thursday 28 Apr 2016) ==>

Summary Precipitation Data For Wednesday 27 April 2016

ElementValueUnits
Precipitation0.59"
NotesAll but 0.01" was from a line of storms that went through in the early morning hours. The rest was from a shower that happened yesterday afternoon.
SourcePearl Creek Farm

Summary Temperature Data For Wednesday 27 April 2016

ElementValueUnits
High Temperature77 oF
Low Temperature51 oF
Average Temperature65 oF
High Humidity90 %
Low Humidity39 %
Average Humidity66 %
SourceSpringfield-Branson National Airport (SGF)

Detail Temperature Data For Wednesday 27 April 2016

Date / TimeTemp (F)RH (%)Dew Pt (F)Report Date / TimeSource
2016-04-27 00:52:00 66 75 58.0 2017-12-29 17:00:26.17417 Springfield-Branson National Airport (SGF)
2016-04-27 01:52:00 57 90 54.0 2017-12-29 17:00:26.17417 Springfield-Branson National Airport (SGF)
2016-04-27 02:52:00 57 90 54.0 2017-12-29 17:00:26.17417 Springfield-Branson National Airport (SGF)
2016-04-27 03:52:00 56 90 53.0 2017-12-29 17:00:26.17417 Springfield-Branson National Airport (SGF)
2016-04-27 04:52:00 57 83 52.0 2017-12-29 17:00:26.17417 Springfield-Branson National Airport (SGF)
2016-04-27 05:52:00 57 83 52.0 2017-12-29 17:00:26.17417 Springfield-Branson National Airport (SGF)
2016-04-27 06:52:00 57 87 53.0 2017-12-29 17:00:26.17417 Springfield-Branson National Airport (SGF)
2016-04-27 07:52:00 58 87 54.0 2017-12-29 17:00:26.17417 Springfield-Branson National Airport (SGF)
2016-04-27 08:52:00 62 78 55.0 2017-12-29 17:00:26.17417 Springfield-Branson National Airport (SGF)
2016-04-27 09:52:00 68 65 56.0 2017-12-29 17:00:26.17417 Springfield-Branson National Airport (SGF)
2016-04-27 10:52:00 70 59 55.0 2017-12-29 17:00:26.17417 Springfield-Branson National Airport (SGF)
2016-04-27 11:52:00 72 59 57.0 2017-12-29 17:00:26.17417 Springfield-Branson National Airport (SGF)
2016-04-27 12:52:00 73 53 55.0 2017-12-29 17:00:26.17417 Springfield-Branson National Airport (SGF)
2016-04-27 13:52:00 75 46 53.0 2017-12-29 17:00:26.17417 Springfield-Branson National Airport (SGF)
2016-04-27 14:52:00 77 39 50.0 2017-12-29 17:00:26.17417 Springfield-Branson National Airport (SGF)
2016-04-27 15:52:00 75 40 49.0 2017-12-29 17:00:26.17417 Springfield-Branson National Airport (SGF)
2016-04-27 16:52:00 75 39 48.0 2017-12-29 17:00:26.17417 Springfield-Branson National Airport (SGF)
2016-04-27 17:52:00 73 40 47.0 2017-12-29 17:00:26.17417 Springfield-Branson National Airport (SGF)
2016-04-27 18:52:00 69 47 48.0 2017-12-29 17:00:26.17417 Springfield-Branson National Airport (SGF)
2016-04-27 19:52:00 66 54 49.0 2017-12-29 17:00:26.17417 Springfield-Branson National Airport (SGF)
2016-04-27 20:52:00 63 60 49.0 2017-12-29 17:00:26.17417 Springfield-Branson National Airport (SGF)
2016-04-27 21:52:00 60 67 49.0 2017-12-29 17:00:26.17417 Springfield-Branson National Airport (SGF)
2016-04-27 22:52:00 55 77 48.0 2017-12-29 17:00:26.17417 Springfield-Branson National Airport (SGF)
2016-04-27 23:52:00 51 83 46.0 2017-12-29 17:00:26.17417 Springfield-Branson National Airport (SGF)

A total of 24 rows are displayed.